createdAt,value
2023-04-30T00:01:00.731Z,100.00
2023-04-30T00:03:29.636Z,100.00
2023-04-30T00:05:58.750Z,100.00
2023-04-30T00:08:27.565Z,100.00
2023-04-30T00:10:56.327Z,100.00
2023-04-30T00:13:25.166Z,100.00
2023-04-30T00:15:54.028Z,100.00
2023-04-30T00:18:24.272Z,100.00
2023-04-30T00:20:53.594Z,100.00
2023-04-30T00:23:22.424Z,100.00
2023-04-30T00:25:51.143Z,100.00
2023-04-30T00:28:20.080Z,100.00
2023-04-30T00:30:48.765Z,100.00
2023-04-30T00:33:17.567Z,100.00
2023-04-30T00:35:47.691Z,100.00
2023-04-30T00:38:16.483Z,100.00
2023-04-30T00:40:46.429Z,100.00
2023-04-30T00:43:15.236Z,100.00
2023-04-30T00:45:43.988Z,100.00
2023-04-30T00:48:13.281Z,100.00
2023-04-30T00:50:42.847Z,100.00
2023-04-30T00:53:13.230Z,100.00
2023-04-30T00:55:43.263Z,100.00
2023-04-30T00:58:12.400Z,100.00
2023-04-30T01:00:47.204Z,100.00
2023-04-30T01:03:16.376Z,100.00
2023-04-30T01:05:45.382Z,100.00
2023-04-30T01:08:16.011Z,100.00
2023-04-30T01:10:52.389Z,100.00
2023-04-30T01:13:30.062Z,100.00
2023-04-30T01:16:04.205Z,100.00
2023-04-30T01:18:40.210Z,100.00
2023-04-30T01:21:12.334Z,100.00
2023-04-30T01:24:07.763Z,100.00
2023-04-30T01:26:55.100Z,100.00
2023-04-30T01:29:27.969Z,100.00
2023-04-30T01:31:56.816Z,100.00
2023-04-30T01:34:25.827Z,100.00
2023-04-30T01:37:06.844Z,100.00
2023-04-30T01:40:12.492Z,100.00
2023-04-30T01:42:50.131Z,100.00
2023-04-30T01:45:34.082Z,100.00
2023-04-30T01:48:15.739Z,100.00
2023-04-30T01:50:52.064Z,100.00
2023-04-30T01:53:25.012Z,100.00
2023-04-30T01:56:00.826Z,100.00
2023-04-30T01:58:31.138Z,100.00
2023-04-30T02:01:01.710Z,100.00
2023-04-30T02:03:30.599Z,100.00
2023-04-30T02:06:00.212Z,100.00
2023-04-30T02:08:29.181Z,100.00
2023-04-30T02:10:57.884Z,100.00
2023-04-30T02:13:26.671Z,100.00
2023-04-30T02:15:55.671Z,100.00
2023-04-30T02:18:25.837Z,100.00
2023-04-30T02:20:54.874Z,100.00
2023-04-30T02:23:23.657Z,100.00
2023-04-30T02:25:52.422Z,100.00
2023-04-30T02:28:21.241Z,100.00
2023-04-30T02:30:50.088Z,100.00
2023-04-30T02:33:18.835Z,100.00
2023-04-30T02:35:49.042Z,100.00
2023-04-30T02:38:17.846Z,100.00
2023-04-30T02:40:46.608Z,100.00
2023-04-30T02:43:15.473Z,100.00
2023-04-30T02:45:44.229Z,100.00
2023-04-30T02:48:13.552Z,100.00
2023-04-30T02:50:44.944Z,100.00
2023-04-30T02:53:15.178Z,100.00
2023-04-30T02:55:44.069Z,100.00
2023-04-30T02:58:13.559Z,100.00
2023-04-30T03:00:42.302Z,100.00
2023-04-30T03:03:11.358Z,100.00
2023-04-30T03:05:40.323Z,100.00
2023-04-30T03:08:09.132Z,100.00
2023-04-30T03:10:40.588Z,100.00
2023-04-30T03:13:09.719Z,100.00
2023-04-30T03:15:38.656Z,100.00
2023-04-30T03:18:07.873Z,100.00
2023-04-30T03:20:36.650Z,100.00
2023-04-30T03:23:05.589Z,100.00
2023-04-30T03:25:35.639Z,100.00
2023-04-30T03:28:09.115Z,100.00
2023-04-30T03:30:37.938Z,100.00
2023-04-30T03:33:09.209Z,100.00
2023-04-30T03:35:38.038Z,100.00
2023-04-30T03:38:06.913Z,100.00
2023-04-30T03:40:35.709Z,100.00
2023-04-30T03:43:06.783Z,100.00
2023-04-30T03:45:36.398Z,100.00
2023-04-30T03:48:05.416Z,100.00
2023-04-30T03:50:34.300Z,100.00
2023-04-30T03:53:03.243Z,100.00
2023-04-30T03:55:32.161Z,100.00
2023-04-30T03:58:01.000Z,100.00
2023-04-30T04:00:31.280Z,100.00
2023-04-30T04:03:00.510Z,100.00
2023-04-30T04:05:30.410Z,100.00
2023-04-30T04:07:59.262Z,100.00
2023-04-30T04:10:28.057Z,100.00
2023-04-30T04:12:56.790Z,100.00
2023-04-30T04:15:25.606Z,100.00
2023-04-30T04:17:59.628Z,100.00
2023-04-30T04:20:30.018Z,100.00
2023-04-30T04:22:58.848Z,100.00
2023-04-30T04:25:28.726Z,100.00
2023-04-30T04:27:57.536Z,100.00
2023-04-30T04:30:26.807Z,100.00
2023-04-30T04:32:55.850Z,100.00
2023-04-30T04:35:26.078Z,100.00
2023-04-30T04:37:55.017Z,100.00
2023-04-30T04:40:23.814Z,100.00
2023-04-30T04:42:52.656Z,100.00
2023-04-30T04:45:21.736Z,100.00
2023-04-30T04:47:52.175Z,100.00
2023-04-30T04:50:21.296Z,100.00
2023-04-30T04:52:51.488Z,100.00
2023-04-30T04:55:20.470Z,100.00
2023-04-30T04:57:49.352Z,100.00
2023-04-30T05:00:19.155Z,100.00
2023-04-30T05:02:48.115Z,100.00
2023-04-30T05:05:17.105Z,100.00
2023-04-30T05:07:46.094Z,100.00
2023-04-30T05:10:16.307Z,100.00
2023-04-30T05:12:45.033Z,100.00
2023-04-30T05:15:13.986Z,100.00
2023-04-30T05:17:42.998Z,100.00
2023-04-30T05:20:12.981Z,100.00
2023-04-30T05:22:43.716Z,100.00
2023-04-30T05:25:12.622Z,100.00
2023-04-30T05:27:45.949Z,100.00
2023-04-30T05:30:15.764Z,100.00
2023-04-30T05:32:50.670Z,99.52
2023-04-30T05:35:20.287Z,97.12
2023-04-30T05:37:49.111Z,97.55
2023-04-30T05:40:18.486Z,97.07
2023-04-30T05:42:48.611Z,96.84
2023-04-30T05:45:18.394Z,97.48
2023-04-30T05:47:47.324Z,96.07
2023-04-30T05:50:16.318Z,93.17
2023-04-30T05:52:45.124Z,93.29
2023-04-30T05:55:16.342Z,94.26
2023-04-30T05:57:45.396Z,93.63
2023-04-30T06:00:18.001Z,94.18
2023-04-30T06:02:46.892Z,93.11
2023-04-30T06:05:18.547Z,92.64
2023-04-30T06:07:47.388Z,91.28
2023-04-30T06:10:16.561Z,92.12
2023-04-30T06:12:45.333Z,92.02
2023-04-30T06:15:16.282Z,93.54
2023-04-30T06:17:46.513Z,93.18
2023-04-30T06:20:17.083Z,92.38
2023-04-30T06:22:46.788Z,93.42
2023-04-30T06:25:16.150Z,92.94
2023-04-30T06:27:44.935Z,94.51
2023-04-30T06:30:19.134Z,94.18
2023-04-30T06:32:47.947Z,93.57
2023-04-30T06:35:19.265Z,93.47
2023-04-30T06:37:48.078Z,92.98
2023-04-30T06:40:17.015Z,92.79
2023-04-30T06:42:47.558Z,91.93
2023-04-30T06:45:18.086Z,92.49
2023-04-30T06:47:51.489Z,93.17
2023-04-30T06:50:21.498Z,93.18
2023-04-30T06:52:50.348Z,92.00
2023-04-30T06:55:20.661Z,92.57
2023-04-30T06:57:49.500Z,92.54
2023-04-30T07:00:19.680Z,90.94
2023-04-30T07:02:52.081Z,90.44
2023-04-30T07:05:21.006Z,91.19
2023-04-30T07:07:50.253Z,89.65
2023-04-30T07:10:19.168Z,90.29
2023-04-30T07:12:48.098Z,90.33
2023-04-30T07:15:18.694Z,90.79
2023-04-30T07:17:47.489Z,88.95
2023-04-30T07:20:16.775Z,89.21
2023-04-30T07:22:46.190Z,88.19
2023-04-30T07:25:15.146Z,89.24
2023-04-30T07:27:44.956Z,89.15
2023-04-30T07:30:14.027Z,88.69
2023-04-30T07:32:44.299Z,88.05
2023-04-30T07:35:13.855Z,86.98
2023-04-30T07:37:43.933Z,87.63
2023-04-30T07:40:21.914Z,86.70
2023-04-30T07:42:50.987Z,86.85
2023-04-30T07:45:19.909Z,82.02
2023-04-30T07:47:50.099Z,79.66
2023-04-30T07:50:19.272Z,78.40
2023-04-30T07:52:50.267Z,78.79
2023-04-30T07:55:19.145Z,80.73
2023-04-30T07:57:47.884Z,82.01
2023-04-30T08:00:17.612Z,82.21
2023-04-30T08:02:48.561Z,79.15
2023-04-30T08:05:19.096Z,79.52
2023-04-30T08:07:47.891Z,79.31
2023-04-30T08:10:16.751Z,79.47
2023-04-30T08:12:45.606Z,73.45
2023-04-30T08:15:14.483Z,72.73
2023-04-30T08:17:43.314Z,69.82
2023-04-30T08:20:12.942Z,65.14
2023-04-30T08:22:43.282Z,63.97
2023-04-30T08:25:13.274Z,64.41
2023-04-30T08:27:42.045Z,63.95
2023-04-30T08:30:11.364Z,60.30
2023-04-30T08:32:40.264Z,61.32
2023-04-30T08:35:10.543Z,61.55
2023-04-30T08:37:39.258Z,62.95
2023-04-30T08:40:12.146Z,59.77
2023-04-30T08:42:47.279Z,60.79
2023-04-30T08:45:16.261Z,59.33
2023-04-30T08:47:46.274Z,57.08
2023-04-30T08:50:15.126Z,55.58
2023-04-30T08:52:44.962Z,56.65
2023-04-30T08:55:15.174Z,57.07
2023-04-30T08:57:43.984Z,59.67
2023-04-30T09:00:13.785Z,61.22
2023-04-30T09:02:43.392Z,59.25
2023-04-30T09:05:15.879Z,56.04
2023-04-30T09:10:21.562Z,57.23
2023-04-30T09:13:01.406Z,57.38
2023-04-30T09:15:31.767Z,57.34
2023-04-30T09:18:18.518Z,56.29
2023-04-30T09:20:58.383Z,57.01
2023-04-30T09:23:27.332Z,57.28
2023-04-30T09:25:57.980Z,55.40
2023-04-30T09:28:28.755Z,53.87
2023-04-30T09:30:59.258Z,53.56
2023-04-30T09:33:30.283Z,54.28
2023-04-30T09:35:59.253Z,54.00
2023-04-30T09:38:30.034Z,54.47
2023-04-30T09:41:02.491Z,56.08
2023-04-30T09:43:31.638Z,54.52
2023-04-30T09:46:01.097Z,51.19
2023-04-30T09:48:30.105Z,51.00
2023-04-30T09:50:59.512Z,51.94
2023-04-30T09:53:32.179Z,51.98
2023-04-30T09:56:07.564Z,52.04
2023-04-30T09:58:39.404Z,51.44
2023-04-30T10:01:09.131Z,50.50
2023-04-30T10:03:40.411Z,51.56
2023-04-30T10:06:10.033Z,51.45
2023-04-30T10:08:43.654Z,51.27
2023-04-30T10:11:19.916Z,50.35
2023-04-30T10:13:54.110Z,49.32
2023-04-30T10:16:35.009Z,48.71
2023-04-30T10:19:08.293Z,50.52
2023-04-30T10:21:41.615Z,51.25
2023-04-30T10:24:11.597Z,52.38
2023-04-30T10:26:43.580Z,51.39
2023-04-30T10:29:14.239Z,51.56
2023-04-30T10:31:46.439Z,51.83
2023-04-30T10:34:24.055Z,51.24
2023-04-30T10:37:00.146Z,51.43
2023-04-30T10:39:29.779Z,51.65
2023-04-30T10:42:11.239Z,50.41
2023-04-30T10:44:40.879Z,50.90
2023-04-30T10:47:11.542Z,51.01
2023-04-30T10:49:43.201Z,50.92
2023-04-30T10:52:13.253Z,52.15
2023-04-30T10:54:50.430Z,52.83
2023-04-30T10:57:22.754Z,49.21
2023-04-30T10:59:55.664Z,46.93
2023-04-30T11:02:24.634Z,46.98
2023-04-30T11:05:12.708Z,48.17
2023-04-30T11:07:50.004Z,48.56
2023-04-30T11:10:22.407Z,48.18
2023-04-30T11:12:54.109Z,46.15
2023-04-30T11:15:26.461Z,46.14
2023-04-30T11:17:59.661Z,45.81
2023-04-30T11:20:29.156Z,46.42
2023-04-30T11:23:11.380Z,46.93
2023-04-30T11:25:44.632Z,47.06
2023-04-30T11:28:18.945Z,47.20
2023-04-30T11:30:55.374Z,48.04
2023-04-30T11:33:25.847Z,48.01
2023-04-30T11:35:56.164Z,47.32
2023-04-30T11:38:28.466Z,47.29
2023-04-30T11:40:57.970Z,44.79
2023-04-30T11:43:29.802Z,45.68
2023-04-30T11:46:06.296Z,45.13
2023-04-30T11:48:36.718Z,44.69
2023-04-30T11:51:15.018Z,43.77
2023-04-30T11:53:44.185Z,44.46
2023-04-30T11:56:13.014Z,45.22
2023-04-30T11:58:43.171Z,45.89
2023-04-30T12:01:12.034Z,40.99
2023-04-30T12:03:44.775Z,41.60
2023-04-30T12:06:22.645Z,41.86
2023-04-30T12:08:53.342Z,43.14
2023-04-30T12:11:25.324Z,44.57
2023-04-30T12:13:56.971Z,44.17
2023-04-30T12:16:26.633Z,41.79
2023-04-30T12:18:55.932Z,40.17
2023-04-30T12:21:25.034Z,39.95
2023-04-30T12:23:53.880Z,40.35
2023-04-30T12:26:22.648Z,39.95
2023-04-30T12:28:52.704Z,40.47
2023-04-30T12:31:22.873Z,41.08
2023-04-30T12:34:04.626Z,41.63
2023-04-30T12:36:34.071Z,37.91
2023-04-30T12:39:09.599Z,38.14
2023-04-30T12:41:41.419Z,39.01
2023-04-30T12:44:20.019Z,38.49
2023-04-30T12:46:51.368Z,39.49
2023-04-30T12:49:27.877Z,39.21
2023-04-30T12:52:01.731Z,38.50
2023-04-30T12:54:31.508Z,38.59
2023-04-30T12:57:02.081Z,38.69
2023-04-30T12:59:31.323Z,38.53
2023-04-30T13:02:10.076Z,37.97
2023-04-30T13:04:39.635Z,37.36
2023-04-30T13:07:08.608Z,37.32
2023-04-30T13:09:38.689Z,37.21
2023-04-30T13:12:07.737Z,36.11
2023-04-30T13:14:36.715Z,35.64
2023-04-30T13:17:11.071Z,35.85
2023-04-30T13:19:42.161Z,36.14
2023-04-30T13:22:13.452Z,35.90
2023-04-30T13:27:31.951Z,35.30
2023-04-30T13:30:04.857Z,33.32
2023-04-30T13:32:37.466Z,32.60
2023-04-30T13:35:23.823Z,33.53
2023-04-30T13:37:55.946Z,32.14
2023-04-30T13:40:38.647Z,31.98
2023-04-30T13:43:08.936Z,30.72
2023-04-30T13:45:39.947Z,30.29
2023-04-30T13:48:11.606Z,30.56
2023-04-30T13:50:45.875Z,30.64
2023-04-30T13:53:17.863Z,31.13
2023-04-30T13:55:49.527Z,32.16
2023-04-30T13:58:20.952Z,33.16
2023-04-30T14:00:54.014Z,31.39
2023-04-30T14:03:26.052Z,32.01
2023-04-30T14:05:56.579Z,31.35
2023-04-30T14:08:25.501Z,31.46
2023-04-30T14:10:54.601Z,31.92
2023-04-30T14:13:23.466Z,32.70
2023-04-30T14:15:52.659Z,32.17
2023-04-30T14:18:28.282Z,31.14
2023-04-30T14:20:59.019Z,31.75
2023-04-30T14:23:29.211Z,32.19
2023-04-30T14:25:58.083Z,32.11
2023-04-30T14:28:27.069Z,32.33
2023-04-30T14:30:56.232Z,32.41
2023-04-30T14:33:25.120Z,30.90
2023-04-30T14:35:54.869Z,30.73
2023-04-30T14:38:24.994Z,31.24
2023-04-30T14:40:53.834Z,31.48
2023-04-30T14:43:22.812Z,31.80
2023-04-30T14:45:51.739Z,32.16
2023-04-30T14:48:23.605Z,32.74
2023-04-30T14:50:52.795Z,32.91
2023-04-30T14:53:21.671Z,32.82
2023-04-30T14:55:52.242Z,31.70
2023-04-30T14:58:21.205Z,30.51
2023-04-30T15:00:50.863Z,30.20
2023-04-30T15:03:22.700Z,30.16
2023-04-30T15:05:51.784Z,29.68
2023-04-30T15:08:20.538Z,29.86
2023-04-30T15:10:50.731Z,30.38
2023-04-30T15:13:19.481Z,30.57
2023-04-30T15:15:49.662Z,30.50
2023-04-30T15:18:18.638Z,30.73
2023-04-30T15:20:47.537Z,30.36
2023-04-30T15:23:16.708Z,31.90
2023-04-30T15:25:45.861Z,32.39
2023-04-30T15:28:16.958Z,31.68
2023-04-30T15:30:45.854Z,31.80
2023-04-30T15:33:14.642Z,32.31
2023-04-30T15:35:43.467Z,31.48
2023-04-30T15:38:12.219Z,30.83
2023-04-30T15:40:40.964Z,31.51
2023-04-30T15:43:09.707Z,31.47
2023-04-30T15:45:39.938Z,31.12
2023-04-30T15:48:08.870Z,31.27
2023-04-30T15:50:38.466Z,31.81
2023-04-30T15:53:07.295Z,32.04
2023-04-30T15:55:36.204Z,32.15
2023-04-30T15:58:05.049Z,31.77
2023-04-30T16:00:34.157Z,31.63
2023-04-30T16:03:04.316Z,31.81
2023-04-30T16:05:33.866Z,31.92
2023-04-30T16:08:02.720Z,33.01
2023-04-30T16:10:31.642Z,32.97
2023-04-30T16:13:00.415Z,32.94
2023-04-30T16:15:30.192Z,32.57
2023-04-30T16:17:59.115Z,32.07
2023-04-30T16:20:30.548Z,31.72
2023-04-30T16:22:59.404Z,31.91
2023-04-30T16:25:28.712Z,32.41
2023-04-30T16:27:57.649Z,32.42
2023-04-30T16:30:26.550Z,32.89
2023-04-30T16:32:55.381Z,33.25
2023-04-30T16:35:24.663Z,32.86
2023-04-30T16:37:55.224Z,32.69
2023-04-30T16:40:23.985Z,32.79
2023-04-30T16:42:52.861Z,32.00
2023-04-30T16:45:21.993Z,32.49
2023-04-30T16:47:51.006Z,32.75
2023-04-30T16:50:19.968Z,32.63
2023-04-30T16:52:48.747Z,31.91
2023-04-30T16:55:19.002Z,32.63
2023-04-30T16:57:48.031Z,32.14
2023-04-30T17:00:17.753Z,31.84
2023-04-30T17:02:48.960Z,31.61
2023-04-30T17:05:18.095Z,32.19
2023-04-30T17:07:46.873Z,31.97
2023-04-30T17:10:18.872Z,31.69
2023-04-30T17:12:47.836Z,30.70
2023-04-30T17:15:18.451Z,30.97
2023-04-30T17:17:47.732Z,31.18
2023-04-30T17:20:16.585Z,31.11
2023-04-30T17:22:45.522Z,31.39
2023-04-30T17:25:14.525Z,31.05
2023-04-30T17:27:44.735Z,31.34
2023-04-30T17:30:15.081Z,32.14
2023-04-30T17:32:44.392Z,31.54
2023-04-30T17:35:13.876Z,31.26
2023-04-30T17:37:42.750Z,30.98
2023-04-30T17:40:12.132Z,30.98
2023-04-30T17:42:40.939Z,30.86
2023-04-30T17:45:12.139Z,31.48
2023-04-30T17:47:43.304Z,31.80
2023-04-30T17:50:12.272Z,32.25
2023-04-30T17:52:41.317Z,32.65
2023-04-30T17:55:10.795Z,33.13
2023-04-30T17:57:39.638Z,33.22
2023-04-30T18:00:11.304Z,33.77
2023-04-30T18:02:43.172Z,34.22
2023-04-30T18:05:12.815Z,34.68
2023-04-30T18:07:41.616Z,34.90
2023-04-30T18:10:11.270Z,35.36
2023-04-30T18:12:40.307Z,35.59
2023-04-30T18:15:13.155Z,36.17
2023-04-30T18:17:43.199Z,36.29
2023-04-30T18:20:13.132Z,36.89
2023-04-30T18:22:43.571Z,37.44
2023-04-30T18:25:13.342Z,37.54
2023-04-30T18:27:42.192Z,38.24
2023-04-30T18:30:12.991Z,38.37
2023-04-30T18:32:44.176Z,38.82
2023-04-30T18:35:13.319Z,38.88
2023-04-30T18:37:42.184Z,39.38
2023-04-30T18:40:12.158Z,39.76
2023-04-30T18:42:40.946Z,39.94
2023-04-30T18:45:12.276Z,40.34
2023-04-30T18:47:41.116Z,40.59
2023-04-30T18:50:15.341Z,41.54
2023-04-30T18:52:44.409Z,41.89
2023-04-30T18:55:14.440Z,41.87
2023-04-30T18:57:43.569Z,42.66
2023-04-30T19:00:15.168Z,42.95
2023-04-30T19:02:44.191Z,44.58
2023-04-30T19:05:14.250Z,44.86
2023-04-30T19:07:43.228Z,44.05
2023-04-30T19:10:12.324Z,43.43
2023-04-30T19:12:43.987Z,43.40
2023-04-30T19:15:15.576Z,44.29
2023-04-30T19:17:44.647Z,45.08
2023-04-30T19:20:14.190Z,45.57
2023-04-30T19:22:43.633Z,45.67
2023-04-30T19:25:14.748Z,46.25
2023-04-30T19:27:44.147Z,46.80
2023-04-30T19:30:16.159Z,47.24
2023-04-30T19:32:44.957Z,47.99
2023-04-30T19:35:13.822Z,48.21
2023-04-30T19:37:42.856Z,48.51
2023-04-30T19:40:12.551Z,48.86
2023-04-30T19:42:41.413Z,49.55
2023-04-30T19:45:11.393Z,50.04
2023-04-30T19:47:41.638Z,49.96
2023-04-30T19:50:11.173Z,50.52
2023-04-30T19:52:39.957Z,50.95
2023-04-30T19:55:09.352Z,51.50
2023-04-30T19:57:38.353Z,52.29
2023-04-30T20:00:08.614Z,53.05
2023-04-30T20:02:37.533Z,53.68
2023-04-30T20:05:10.198Z,54.22
2023-04-30T20:07:39.006Z,55.80
2023-04-30T20:10:09.775Z,56.25
2023-04-30T20:12:39.048Z,56.39
2023-04-30T20:15:08.852Z,57.17
2023-04-30T20:17:37.898Z,58.90
2023-04-30T20:20:09.284Z,59.44
2023-04-30T20:22:37.997Z,58.67
2023-04-30T20:25:08.225Z,57.33
2023-04-30T20:27:37.013Z,57.01
2023-04-30T20:30:06.152Z,56.68
2023-04-30T20:32:35.644Z,56.48
2023-04-30T20:35:05.220Z,55.82
2023-04-30T20:37:35.766Z,54.62
2023-04-30T20:40:07.850Z,53.92
2023-04-30T20:42:36.914Z,53.78
2023-04-30T20:45:06.544Z,53.26
2023-04-30T20:47:35.361Z,52.43
2023-04-30T20:50:04.428Z,52.88
2023-04-30T20:52:34.963Z,52.43
2023-04-30T20:55:03.998Z,52.79
2023-04-30T20:57:32.746Z,53.38
2023-04-30T21:00:01.560Z,53.24
2023-04-30T21:02:30.858Z,53.52
2023-04-30T21:05:04.581Z,53.50
2023-04-30T21:07:35.369Z,53.13
2023-04-30T21:10:05.169Z,52.81
2023-04-30T21:12:34.320Z,53.09
2023-04-30T21:15:03.563Z,53.33
2023-04-30T21:17:34.019Z,53.53
2023-04-30T21:20:03.949Z,53.74
2023-04-30T21:22:34.368Z,54.03
2023-04-30T21:25:03.237Z,54.34
2023-04-30T21:27:32.037Z,54.88
2023-04-30T21:30:00.806Z,55.40
2023-04-30T21:32:29.613Z,55.18
2023-04-30T21:34:58.496Z,56.06
2023-04-30T21:37:28.227Z,57.29
2023-04-30T21:39:58.744Z,57.82
2023-04-30T21:42:27.629Z,58.95
2023-04-30T21:44:57.226Z,60.30
2023-04-30T21:47:26.726Z,59.72
2023-04-30T21:49:58.685Z,61.70
2023-04-30T21:52:27.746Z,63.25
2023-04-30T21:54:58.546Z,62.64
2023-04-30T21:57:28.525Z,62.60
2023-04-30T22:00:04.401Z,63.88
2023-04-30T22:02:33.923Z,66.22
2023-04-30T22:05:04.428Z,66.95
2023-04-30T22:07:33.254Z,66.94
2023-04-30T22:10:05.713Z,66.29
2023-04-30T22:12:35.023Z,66.17
2023-04-30T22:15:04.737Z,67.89
2023-04-30T22:17:33.672Z,67.63
2023-04-30T22:20:04.766Z,66.78
2023-04-30T22:22:33.900Z,67.58
2023-04-30T22:25:04.589Z,67.40
2023-04-30T22:27:33.413Z,66.22
2023-04-30T22:30:02.206Z,65.79
2023-04-30T22:32:32.377Z,65.52
2023-04-30T22:35:01.200Z,65.94
2023-04-30T22:37:31.172Z,65.78
2023-04-30T22:39:59.969Z,66.73
2023-04-30T22:42:30.773Z,70.98
2023-04-30T22:45:00.135Z,71.38
2023-04-30T22:47:29.192Z,69.16
2023-04-30T22:49:58.805Z,69.47
2023-04-30T22:52:29.784Z,69.88
2023-04-30T22:54:58.663Z,70.14
2023-04-30T22:57:27.430Z,68.34
2023-04-30T22:59:57.903Z,70.72
2023-04-30T23:02:28.696Z,69.80
2023-04-30T23:04:57.663Z,68.95
2023-04-30T23:07:26.462Z,67.81
2023-04-30T23:09:55.570Z,67.32
2023-04-30T23:12:24.443Z,67.18
2023-04-30T23:14:53.642Z,67.29
2023-04-30T23:17:24.249Z,68.44
2023-04-30T23:19:53.107Z,67.80
2023-04-30T23:22:24.945Z,68.18
2023-04-30T23:24:55.433Z,67.84
2023-04-30T23:27:24.351Z,67.44
2023-04-30T23:29:53.344Z,68.25
2023-04-30T23:32:23.765Z,68.00
2023-04-30T23:34:52.533Z,67.31
2023-04-30T23:37:21.331Z,67.09
2023-04-30T23:39:54.358Z,67.73
2023-04-30T23:42:23.376Z,68.67
2023-04-30T23:44:52.080Z,69.99
2023-04-30T23:47:22.477Z,70.63
2023-04-30T23:49:51.292Z,70.92
2023-04-30T23:52:20.016Z,71.13
2023-04-30T23:54:49.136Z,70.89
2023-04-30T23:57:18.116Z,70.52
2023-04-30T23:59:47.245Z,69.54
